sensor_id;sensor_type;location;lat;lon;timestamp;P1;durP1;ratioP1;P2;durP2;ratioP2
1545;SDS011;766;51.502;9.752;2022-08-19T00:01:57;13.48;;;10.35;;
1545;SDS011;766;51.502;9.752;2022-08-19T00:04:32;12.80;;;9.68;;
1545;SDS011;766;51.502;9.752;2022-08-19T00:07:03;12.57;;;9.45;;
1545;SDS011;766;51.502;9.752;2022-08-19T00:09:32;11.07;;;8.52;;
1545;SDS011;766;51.502;9.752;2022-08-19T00:12:01;11.13;;;9.05;;
1545;SDS011;766;51.502;9.752;2022-08-19T00:14:30;14.70;;;9.55;;
1545;SDS011;766;51.502;9.752;2022-08-19T00:16:59;11.32;;;8.70;;
1545;SDS011;766;51.502;9.752;2022-08-19T00:19:31;14.85;;;9.30;;
1545;SDS011;766;51.502;9.752;2022-08-19T00:21:59;13.70;;;9.65;;
1545;SDS011;766;51.502;9.752;2022-08-19T00:24:28;13.50;;;9.77;;
1545;SDS011;766;51.502;9.752;2022-08-19T00:26:57;16.35;;;9.95;;
1545;SDS011;766;51.502;9.752;2022-08-19T00:29:47;12.68;;;9.73;;
1545;SDS011;766;51.502;9.752;2022-08-19T00:32:18;11.77;;;9.00;;
1545;SDS011;766;51.502;9.752;2022-08-19T00:34:48;15.25;;;9.50;;
1545;SDS011;766;51.502;9.752;2022-08-19T00:37:19;18.90;;;10.10;;
1545;SDS011;766;51.502;9.752;2022-08-19T00:39:49;17.02;;;9.18;;
1545;SDS011;766;51.502;9.752;2022-08-19T00:42:19;13.48;;;9.23;;
1545;SDS011;766;51.502;9.752;2022-08-19T00:44:48;11.00;;;8.63;;
1545;SDS011;766;51.502;9.752;2022-08-19T00:47:17;13.70;;;9.85;;
1545;SDS011;766;51.502;9.752;2022-08-19T00:49:47;16.05;;;9.32;;
1545;SDS011;766;51.502;9.752;2022-08-19T00:52:23;13.07;;;8.63;;
1545;SDS011;766;51.502;9.752;2022-08-19T00:54:55;11.98;;;9.35;;
1545;SDS011;766;51.502;9.752;2022-08-19T00:57:26;14.00;;;8.35;;
1545;SDS011;766;51.502;9.752;2022-08-19T00:59:58;18.52;;;9.65;;
1545;SDS011;766;51.502;9.752;2022-08-19T01:02:29;14.10;;;8.80;;
1545;SDS011;766;51.502;9.752;2022-08-19T01:05:00;12.57;;;8.57;;
1545;SDS011;766;51.502;9.752;2022-08-19T01:07:32;13.07;;;8.60;;
1545;SDS011;766;51.502;9.752;2022-08-19T01:10:08;11.73;;;9.07;;
1545;SDS011;766;51.502;9.752;2022-08-19T01:12:38;13.98;;;8.73;;
1545;SDS011;766;51.502;9.752;2022-08-19T01:15:08;11.60;;;8.82;;
1545;SDS011;766;51.502;9.752;2022-08-19T01:17:38;10.75;;;8.95;;
1545;SDS011;766;51.502;9.752;2022-08-19T01:20:11;11.98;;;8.07;;
1545;SDS011;766;51.502;9.752;2022-08-19T01:22:44;11.45;;;9.20;;
1545;SDS011;766;51.502;9.752;2022-08-19T01:25:14;11.35;;;8.13;;
1545;SDS011;766;51.502;9.752;2022-08-19T01:27:46;13.23;;;9.10;;
1545;SDS011;766;51.502;9.752;2022-08-19T01:30:20;13.18;;;9.02;;
1545;SDS011;766;51.502;9.752;2022-08-19T01:32:51;10.50;;;8.77;;
1545;SDS011;766;51.502;9.752;2022-08-19T01:35:20;16.23;;;8.00;;
1545;SDS011;766;51.502;9.752;2022-08-19T01:37:52;10.80;;;8.10;;
1545;SDS011;766;51.502;9.752;2022-08-19T01:40:24;9.27;;;8.10;;
1545;SDS011;766;51.502;9.752;2022-08-19T01:42:58;9.40;;;7.88;;
1545;SDS011;766;51.502;9.752;2022-08-19T01:45:27;9.20;;;7.90;;
1545;SDS011;766;51.502;9.752;2022-08-19T01:47:57;10.98;;;8.23;;
1545;SDS011;766;51.502;9.752;2022-08-19T01:50:28;9.85;;;8.05;;
1545;SDS011;766;51.502;9.752;2022-08-19T01:52:58;12.68;;;8.32;;
1545;SDS011;766;51.502;9.752;2022-08-19T01:55:34;12.43;;;8.73;;
1545;SDS011;766;51.502;9.752;2022-08-19T01:58:07;13.20;;;8.30;;
1545;SDS011;766;51.502;9.752;2022-08-19T02:00:38;10.75;;;8.27;;
1545;SDS011;766;51.502;9.752;2022-08-19T02:03:09;13.10;;;7.97;;
1545;SDS011;766;51.502;9.752;2022-08-19T02:05:38;12.25;;;8.27;;
1545;SDS011;766;51.502;9.752;2022-08-19T02:08:09;10.45;;;7.63;;
1545;SDS011;766;51.502;9.752;2022-08-19T02:10:39;11.25;;;7.85;;
1545;SDS011;766;51.502;9.752;2022-08-19T02:13:08;9.00;;;6.97;;
1545;SDS011;766;51.502;9.752;2022-08-19T02:15:37;10.30;;;7.68;;
1545;SDS011;766;51.502;9.752;2022-08-19T02:18:06;11.48;;;7.63;;
1545;SDS011;766;51.502;9.752;2022-08-19T02:20:34;9.88;;;7.22;;
1545;SDS011;766;51.502;9.752;2022-08-19T02:23:03;7.55;;;6.80;;
1545;SDS011;766;51.502;9.752;2022-08-19T02:25:43;9.90;;;7.00;;
1545;SDS011;766;51.502;9.752;2022-08-19T02:28:15;9.98;;;7.13;;
1545;SDS011;766;51.502;9.752;2022-08-19T02:30:44;9.18;;;6.68;;
1545;SDS011;766;51.502;9.752;2022-08-19T02:33:14;11.90;;;6.90;;
1545;SDS011;766;51.502;9.752;2022-08-19T02:35:45;10.20;;;7.20;;
1545;SDS011;766;51.502;9.752;2022-08-19T02:38:14;12.40;;;7.18;;
1545;SDS011;766;51.502;9.752;2022-08-19T02:40:56;10.55;;;7.13;;
1545;SDS011;766;51.502;9.752;2022-08-19T02:43:27;11.32;;;6.82;;
1545;SDS011;766;51.502;9.752;2022-08-19T02:45:59;9.15;;;6.22;;
1545;SDS011;766;51.502;9.752;2022-08-19T02:48:28;8.35;;;6.68;;
1545;SDS011;766;51.502;9.752;2022-08-19T02:50:59;10.13;;;7.25;;
1545;SDS011;766;51.502;9.752;2022-08-19T02:53:27;12.57;;;7.63;;
1545;SDS011;766;51.502;9.752;2022-08-19T02:55:57;7.72;;;6.93;;
1545;SDS011;766;51.502;9.752;2022-08-19T02:58:26;9.23;;;8.15;;
1545;SDS011;766;51.502;9.752;2022-08-19T03:00:55;10.60;;;8.02;;
1545;SDS011;766;51.502;9.752;2022-08-19T03:03:24;11.15;;;8.13;;
1545;SDS011;766;51.502;9.752;2022-08-19T03:06:02;10.98;;;8.55;;
1545;SDS011;766;51.502;9.752;2022-08-19T03:08:31;17.20;;;10.43;;
1545;SDS011;766;51.502;9.752;2022-08-19T03:11:01;10.38;;;9.30;;
1545;SDS011;766;51.502;9.752;2022-08-19T03:13:30;18.90;;;9.75;;
1545;SDS011;766;51.502;9.752;2022-08-19T03:15:59;11.23;;;8.32;;
1545;SDS011;766;51.502;9.752;2022-08-19T03:18:31;10.93;;;9.13;;
1545;SDS011;766;51.502;9.752;2022-08-19T03:21:00;11.88;;;9.15;;
1545;SDS011;766;51.502;9.752;2022-08-19T03:23:29;11.73;;;9.80;;
1545;SDS011;766;51.502;9.752;2022-08-19T03:25:57;10.43;;;9.20;;
1545;SDS011;766;51.502;9.752;2022-08-19T03:28:43;11.45;;;8.75;;
1545;SDS011;766;51.502;9.752;2022-08-19T03:31:23;12.32;;;9.55;;
1545;SDS011;766;51.502;9.752;2022-08-19T03:34:13;10.57;;;9.48;;
1545;SDS011;766;51.502;9.752;2022-08-19T03:36:43;10.45;;;8.50;;
1545;SDS011;766;51.502;9.752;2022-08-19T03:39:14;10.35;;;8.88;;
1545;SDS011;766;51.502;9.752;2022-08-19T03:41:43;13.75;;;7.78;;
1545;SDS011;766;51.502;9.752;2022-08-19T03:44:16;8.48;;;7.55;;
1545;SDS011;766;51.502;9.752;2022-08-19T03:46:47;10.27;;;8.13;;
1545;SDS011;766;51.502;9.752;2022-08-19T03:49:18;11.20;;;8.57;;
1545;SDS011;766;51.502;9.752;2022-08-19T03:51:54;11.05;;;7.95;;
1545;SDS011;766;51.502;9.752;2022-08-19T03:54:24;15.23;;;8.80;;
1545;SDS011;766;51.502;9.752;2022-08-19T03:56:54;10.60;;;7.88;;
1545;SDS011;766;51.502;9.752;2022-08-19T03:59:25;13.88;;;7.75;;
1545;SDS011;766;51.502;9.752;2022-08-19T04:02:40;7.80;;;6.70;;
1545;SDS011;766;51.502;9.752;2022-08-19T04:05:26;7.93;;;6.57;;
1545;SDS011;766;51.502;9.752;2022-08-19T04:07:55;11.88;;;6.65;;
1545;SDS011;766;51.502;9.752;2022-08-19T04:10:25;8.20;;;6.40;;
1545;SDS011;766;51.502;9.752;2022-08-19T04:12:54;7.97;;;7.18;;
1545;SDS011;766;51.502;9.752;2022-08-19T04:15:24;10.13;;;7.95;;
1545;SDS011;766;51.502;9.752;2022-08-19T04:17:54;9.55;;;8.50;;
1545;SDS011;766;51.502;9.752;2022-08-19T04:20:22;10.32;;;9.13;;
1545;SDS011;766;51.502;9.752;2022-08-19T04:22:50;10.60;;;8.75;;
1545;SDS011;766;51.502;9.752;2022-08-19T04:25:21;9.60;;;8.63;;
1545;SDS011;766;51.502;9.752;2022-08-19T04:27:50;10.10;;;8.40;;
1545;SDS011;766;51.502;9.752;2022-08-19T04:30:18;13.55;;;8.75;;
1545;SDS011;766;51.502;9.752;2022-08-19T04:32:50;9.00;;;8.10;;
1545;SDS011;766;51.502;9.752;2022-08-19T04:35:18;11.93;;;8.57;;
1545;SDS011;766;51.502;9.752;2022-08-19T04:37:50;8.98;;;8.07;;
1545;SDS011;766;51.502;9.752;2022-08-19T04:40:19;13.68;;;7.68;;
1545;SDS011;766;51.502;9.752;2022-08-19T04:43:05;9.80;;;7.85;;
1545;SDS011;766;51.502;9.752;2022-08-19T04:45:37;10.80;;;8.00;;
1545;SDS011;766;51.502;9.752;2022-08-19T04:48:11;8.68;;;7.80;;
1545;SDS011;766;51.502;9.752;2022-08-19T04:50:53;12.77;;;7.40;;
1545;SDS011;766;51.502;9.752;2022-08-19T04:53:24;10.70;;;6.55;;
1545;SDS011;766;51.502;9.752;2022-08-19T04:55:55;10.23;;;6.55;;
1545;SDS011;766;51.502;9.752;2022-08-19T04:58:25;8.88;;;5.65;;
1545;SDS011;766;51.502;9.752;2022-08-19T05:00:57;9.95;;;6.03;;
1545;SDS011;766;51.502;9.752;2022-08-19T05:03:28;9.13;;;5.80;;
1545;SDS011;766;51.502;9.752;2022-08-19T05:06:04;6.20;;;5.35;;
1545;SDS011;766;51.502;9.752;2022-08-19T05:08:34;6.85;;;5.25;;
1545;SDS011;766;51.502;9.752;2022-08-19T05:11:07;12.75;;;4.88;;
1545;SDS011;766;51.502;9.752;2022-08-19T05:13:39;7.93;;;4.88;;
1545;SDS011;766;51.502;9.752;2022-08-19T05:16:11;5.55;;;4.53;;
1545;SDS011;766;51.502;9.752;2022-08-19T05:18:42;7.38;;;4.32;;
1545;SDS011;766;51.502;9.752;2022-08-19T05:21:34;8.02;;;4.70;;
1545;SDS011;766;51.502;9.752;2022-08-19T05:24:22;7.22;;;4.53;;
1545;SDS011;766;51.502;9.752;2022-08-19T05:26:53;8.48;;;4.38;;
1545;SDS011;766;51.502;9.752;2022-08-19T05:29:25;7.68;;;4.57;;
1545;SDS011;766;51.502;9.752;2022-08-19T05:32:04;6.70;;;4.20;;
1545;SDS011;766;51.502;9.752;2022-08-19T05:34:39;10.25;;;4.20;;
1545;SDS011;766;51.502;9.752;2022-08-19T05:37:08;5.28;;;4.20;;
1545;SDS011;766;51.502;9.752;2022-08-19T05:39:37;6.20;;;4.47;;
1545;SDS011;766;51.502;9.752;2022-08-19T05:42:08;4.80;;;4.30;;
1545;SDS011;766;51.502;9.752;2022-08-19T05:44:38;4.55;;;3.97;;
1545;SDS011;766;51.502;9.752;2022-08-19T05:47:11;8.07;;;4.40;;
1545;SDS011;766;51.502;9.752;2022-08-19T05:49:42;7.45;;;4.15;;
1545;SDS011;766;51.502;9.752;2022-08-19T05:52:12;8.07;;;4.00;;
1545;SDS011;766;51.502;9.752;2022-08-19T05:54:44;7.15;;;4.00;;
1545;SDS011;766;51.502;9.752;2022-08-19T05:57:17;5.93;;;4.30;;
1545;SDS011;766;51.502;9.752;2022-08-19T05:59:46;5.07;;;4.13;;
1545;SDS011;766;51.502;9.752;2022-08-19T06:02:23;6.45;;;3.55;;
1545;SDS011;766;51.502;9.752;2022-08-19T06:04:53;7.90;;;4.20;;
1545;SDS011;766;51.502;9.752;2022-08-19T06:07:22;4.22;;;3.80;;
1545;SDS011;766;51.502;9.752;2022-08-19T06:09:50;4.03;;;3.55;;
1545;SDS011;766;51.502;9.752;2022-08-19T06:12:26;5.90;;;3.78;;
1545;SDS011;766;51.502;9.752;2022-08-19T06:14:58;5.05;;;3.75;;
1545;SDS011;766;51.502;9.752;2022-08-19T06:17:27;6.35;;;3.80;;
1545;SDS011;766;51.502;9.752;2022-08-19T06:19:59;8.63;;;3.60;;
1545;SDS011;766;51.502;9.752;2022-08-19T06:22:29;4.90;;;3.30;;
1545;SDS011;766;51.502;9.752;2022-08-19T06:24:58;5.38;;;3.63;;
1545;SDS011;766;51.502;9.752;2022-08-19T06:27:26;4.85;;;3.17;;
1545;SDS011;766;51.502;9.752;2022-08-19T06:29:57;5.00;;;3.00;;
1545;SDS011;766;51.502;9.752;2022-08-19T06:32:25;6.18;;;3.30;;
1545;SDS011;766;51.502;9.752;2022-08-19T06:34:54;7.88;;;3.33;;
1545;SDS011;766;51.502;9.752;2022-08-19T06:37:24;3.58;;;2.80;;
1545;SDS011;766;51.502;9.752;2022-08-19T06:39:52;5.30;;;3.47;;
1545;SDS011;766;51.502;9.752;2022-08-19T06:42:21;6.75;;;3.53;;
1545;SDS011;766;51.502;9.752;2022-08-19T06:44:50;5.65;;;3.20;;
1545;SDS011;766;51.502;9.752;2022-08-19T06:47:20;5.40;;;3.33;;
1545;SDS011;766;51.502;9.752;2022-08-19T06:49:54;4.40;;;2.85;;
1545;SDS011;766;51.502;9.752;2022-08-19T06:52:29;4.32;;;3.05;;
1545;SDS011;766;51.502;9.752;2022-08-19T06:55:02;5.53;;;2.60;;
1545;SDS011;766;51.502;9.752;2022-08-19T06:57:32;3.83;;;2.80;;
1545;SDS011;766;51.502;9.752;2022-08-19T07:00:01;5.70;;;3.00;;
1545;SDS011;766;51.502;9.752;2022-08-19T07:02:35;5.70;;;2.67;;
1545;SDS011;766;51.502;9.752;2022-08-19T07:05:06;4.07;;;2.72;;
1545;SDS011;766;51.502;9.752;2022-08-19T07:07:37;4.18;;;2.40;;
1545;SDS011;766;51.502;9.752;2022-08-19T07:10:13;6.85;;;3.00;;
1545;SDS011;766;51.502;9.752;2022-08-19T07:12:42;3.85;;;2.50;;
1545;SDS011;766;51.502;9.752;2022-08-19T07:15:11;6.25;;;3.00;;
1545;SDS011;766;51.502;9.752;2022-08-19T07:17:39;4.97;;;2.70;;
1545;SDS011;766;51.502;9.752;2022-08-19T07:20:10;7.15;;;3.15;;
1545;SDS011;766;51.502;9.752;2022-08-19T07:22:41;5.97;;;2.97;;
1545;SDS011;766;51.502;9.752;2022-08-19T07:25:09;5.90;;;2.80;;
1545;SDS011;766;51.502;9.752;2022-08-19T07:27:39;4.20;;;2.60;;
1545;SDS011;766;51.502;9.752;2022-08-19T07:30:12;6.05;;;2.65;;
1545;SDS011;766;51.502;9.752;2022-08-19T07:32:40;5.03;;;2.75;;
1545;SDS011;766;51.502;9.752;2022-08-19T07:35:09;5.25;;;2.58;;
1545;SDS011;766;51.502;9.752;2022-08-19T07:37:38;5.93;;;2.83;;
1545;SDS011;766;51.502;9.752;2022-08-19T07:40:12;5.05;;;2.70;;
1545;SDS011;766;51.502;9.752;2022-08-19T07:42:42;9.00;;;3.15;;
1545;SDS011;766;51.502;9.752;2022-08-19T07:45:11;7.07;;;3.05;;
1545;SDS011;766;51.502;9.752;2022-08-19T07:47:39;6.18;;;2.83;;
1545;SDS011;766;51.502;9.752;2022-08-19T07:50:17;4.15;;;2.85;;
1545;SDS011;766;51.502;9.752;2022-08-19T07:52:47;4.25;;;2.80;;
1545;SDS011;766;51.502;9.752;2022-08-19T07:55:22;5.20;;;3.30;;
1545;SDS011;766;51.502;9.752;2022-08-19T07:58:09;3.92;;;2.53;;
1545;SDS011;766;51.502;9.752;2022-08-19T08:00:39;5.05;;;2.83;;
1545;SDS011;766;51.502;9.752;2022-08-19T08:03:08;5.88;;;3.20;;
1545;SDS011;766;51.502;9.752;2022-08-19T08:05:37;5.43;;;3.10;;
1545;SDS011;766;51.502;9.752;2022-08-19T08:08:37;4.50;;;3.33;;
1545;SDS011;766;51.502;9.752;2022-08-19T08:11:25;5.85;;;3.85;;
1545;SDS011;766;51.502;9.752;2022-08-19T08:13:54;5.32;;;2.95;;
1545;SDS011;766;51.502;9.752;2022-08-19T08:19:08;6.03;;;3.17;;
1545;SDS011;766;51.502;9.752;2022-08-19T08:21:54;8.90;;;3.65;;
1545;SDS011;766;51.502;9.752;2022-08-19T08:24:24;5.05;;;3.58;;
1545;SDS011;766;51.502;9.752;2022-08-19T08:26:58;6.32;;;3.47;;
1545;SDS011;766;51.502;9.752;2022-08-19T08:29:36;5.80;;;3.08;;
1545;SDS011;766;51.502;9.752;2022-08-19T08:32:07;3.65;;;2.78;;
1545;SDS011;766;51.502;9.752;2022-08-19T08:34:40;3.80;;;3.03;;
1545;SDS011;766;51.502;9.752;2022-08-19T08:37:17;5.10;;;2.92;;
1545;SDS011;766;51.502;9.752;2022-08-19T08:39:45;3.88;;;2.67;;
1545;SDS011;766;51.502;9.752;2022-08-19T08:42:18;4.25;;;3.25;;
1545;SDS011;766;51.502;9.752;2022-08-19T08:44:53;4.25;;;3.00;;
1545;SDS011;766;51.502;9.752;2022-08-19T08:47:26;6.05;;;2.95;;
1545;SDS011;766;51.502;9.752;2022-08-19T08:50:00;4.78;;;2.72;;
1545;SDS011;766;51.502;9.752;2022-08-19T08:52:32;5.38;;;2.70;;
1545;SDS011;766;51.502;9.752;2022-08-19T08:55:06;5.65;;;3.10;;
1545;SDS011;766;51.502;9.752;2022-08-19T08:57:49;3.25;;;2.95;;
1545;SDS011;766;51.502;9.752;2022-08-19T09:00:23;4.45;;;2.90;;
1545;SDS011;766;51.502;9.752;2022-08-19T09:02:56;4.30;;;2.78;;
1545;SDS011;766;51.502;9.752;2022-08-19T09:05:30;4.68;;;2.83;;
1545;SDS011;766;51.502;9.752;2022-08-19T09:08:15;2.78;;;2.50;;
1545;SDS011;766;51.502;9.752;2022-08-19T09:10:51;6.43;;;2.80;;
1545;SDS011;766;51.502;9.752;2022-08-19T09:13:26;6.05;;;3.25;;
1545;SDS011;766;51.502;9.752;2022-08-19T09:16:05;5.35;;;2.60;;
1545;SDS011;766;51.502;9.752;2022-08-19T09:18:40;6.68;;;2.83;;
1545;SDS011;766;51.502;9.752;2022-08-19T09:21:10;4.95;;;2.47;;
1545;SDS011;766;51.502;9.752;2022-08-19T09:23:38;4.13;;;2.65;;
1545;SDS011;766;51.502;9.752;2022-08-19T09:26:08;3.33;;;2.60;;
1545;SDS011;766;51.502;9.752;2022-08-19T09:28:44;4.07;;;2.13;;
1545;SDS011;766;51.502;9.752;2022-08-19T09:31:24;2.67;;;1.92;;
1545;SDS011;766;51.502;9.752;2022-08-19T09:33:54;3.95;;;2.08;;
1545;SDS011;766;51.502;9.752;2022-08-19T09:36:24;2.33;;;1.85;;
1545;SDS011;766;51.502;9.752;2022-08-19T09:39:00;2.88;;;2.38;;
1545;SDS011;766;51.502;9.752;2022-08-19T09:41:41;2.20;;;1.92;;
1545;SDS011;766;51.502;9.752;2022-08-19T09:44:15;3.25;;;1.80;;
1545;SDS011;766;51.502;9.752;2022-08-19T09:46:48;2.13;;;1.73;;
1545;SDS011;766;51.502;9.752;2022-08-19T09:49:18;1.88;;;1.70;;
1545;SDS011;766;51.502;9.752;2022-08-19T09:51:50;3.20;;;1.80;;
1545;SDS011;766;51.502;9.752;2022-08-19T09:54:20;3.45;;;1.73;;
1545;SDS011;766;51.502;9.752;2022-08-19T09:56:51;5.05;;;2.10;;
1545;SDS011;766;51.502;9.752;2022-08-19T09:59:21;4.35;;;1.80;;
1545;SDS011;766;51.502;9.752;2022-08-19T10:01:49;5.25;;;2.10;;
1545;SDS011;766;51.502;9.752;2022-08-19T10:04:18;2.75;;;1.88;;
1545;SDS011;766;51.502;9.752;2022-08-19T10:06:48;2.20;;;1.58;;
1545;SDS011;766;51.502;9.752;2022-08-19T10:09:20;3.38;;;1.92;;
1545;SDS011;766;51.502;9.752;2022-08-19T10:11:59;5.03;;;1.70;;
1545;SDS011;766;51.502;9.752;2022-08-19T10:14:29;5.57;;;1.92;;
1545;SDS011;766;51.502;9.752;2022-08-19T10:16:59;3.13;;;1.80;;
1545;SDS011;766;51.502;9.752;2022-08-19T10:19:45;2.53;;;1.80;;
1545;SDS011;766;51.502;9.752;2022-08-19T10:22:21;2.63;;;1.75;;
1545;SDS011;766;51.502;9.752;2022-08-19T10:24:51;4.38;;;1.80;;
1545;SDS011;766;51.502;9.752;2022-08-19T10:27:20;4.97;;;1.63;;
1545;SDS011;766;51.502;9.752;2022-08-19T10:29:53;2.45;;;1.70;;
1545;SDS011;766;51.502;9.752;2022-08-19T10:32:24;2.58;;;1.83;;
1545;SDS011;766;51.502;9.752;2022-08-19T10:35:00;3.13;;;1.80;;
1545;SDS011;766;51.502;9.752;2022-08-19T10:37:31;1.83;;;1.70;;
1545;SDS011;766;51.502;9.752;2022-08-19T10:40:00;2.78;;;2.10;;
1545;SDS011;766;51.502;9.752;2022-08-19T10:42:29;2.00;;;1.67;;
1545;SDS011;766;51.502;9.752;2022-08-19T10:45:00;2.60;;;1.73;;
1545;SDS011;766;51.502;9.752;2022-08-19T10:47:30;3.17;;;1.80;;
1545;SDS011;766;51.502;9.752;2022-08-19T10:49:58;3.72;;;1.70;;
1545;SDS011;766;51.502;9.752;2022-08-19T10:52:45;2.95;;;1.70;;
1545;SDS011;766;51.502;9.752;2022-08-19T10:55:17;4.47;;;1.65;;
1545;SDS011;766;51.502;9.752;2022-08-19T10:58:04;3.00;;;1.58;;
1545;SDS011;766;51.502;9.752;2022-08-19T11:00:40;1.60;;;1.50;;
1545;SDS011;766;51.502;9.752;2022-08-19T11:03:10;2.58;;;1.58;;
1545;SDS011;766;51.502;9.752;2022-08-19T11:05:39;4.30;;;1.40;;
1545;SDS011;766;51.502;9.752;2022-08-19T11:08:09;3.22;;;1.50;;
1545;SDS011;766;51.502;9.752;2022-08-19T11:10:49;1.73;;;1.58;;
1545;SDS011;766;51.502;9.752;2022-08-19T11:13:25;2.92;;;1.70;;
1545;SDS011;766;51.502;9.752;2022-08-19T11:16:00;2.13;;;1.30;;
1545;SDS011;766;51.502;9.752;2022-08-19T11:18:34;2.10;;;1.60;;
1545;SDS011;766;51.502;9.752;2022-08-19T11:21:06;3.05;;;1.70;;
1545;SDS011;766;51.502;9.752;2022-08-19T11:23:37;2.92;;;1.58;;
1545;SDS011;766;51.502;9.752;2022-08-19T11:26:05;3.03;;;1.65;;
1545;SDS011;766;51.502;9.752;2022-08-19T11:28:34;2.70;;;1.80;;
1545;SDS011;766;51.502;9.752;2022-08-19T11:31:11;4.30;;;1.50;;
1545;SDS011;766;51.502;9.752;2022-08-19T11:33:43;1.95;;;1.50;;
1545;SDS011;766;51.502;9.752;2022-08-19T11:36:13;3.30;;;1.38;;
1545;SDS011;766;51.502;9.752;2022-08-19T11:38:44;3.00;;;1.55;;
1545;SDS011;766;51.502;9.752;2022-08-19T11:41:15;2.63;;;1.73;;
1545;SDS011;766;51.502;9.752;2022-08-19T11:43:45;2.85;;;1.70;;
1545;SDS011;766;51.502;9.752;2022-08-19T11:46:15;2.72;;;1.90;;
1545;SDS011;766;51.502;9.752;2022-08-19T11:48:47;3.15;;;1.88;;
1545;SDS011;766;51.502;9.752;2022-08-19T11:51:17;3.15;;;1.88;;
1545;SDS011;766;51.502;9.752;2022-08-19T11:53:46;2.55;;;1.65;;
1545;SDS011;766;51.502;9.752;2022-08-19T11:56:16;3.83;;;1.50;;
1545;SDS011;766;51.502;9.752;2022-08-19T11:58:46;2.33;;;1.73;;
1545;SDS011;766;51.502;9.752;2022-08-19T12:01:17;2.65;;;1.85;;
1545;SDS011;766;51.502;9.752;2022-08-19T12:03:47;2.35;;;1.90;;
1545;SDS011;766;51.502;9.752;2022-08-19T12:06:18;5.00;;;2.17;;
1545;SDS011;766;51.502;9.752;2022-08-19T12:08:57;2.25;;;2.05;;
1545;SDS011;766;51.502;9.752;2022-08-19T12:11:27;2.92;;;2.00;;
1545;SDS011;766;51.502;9.752;2022-08-19T12:14:00;2.67;;;1.92;;
1545;SDS011;766;51.502;9.752;2022-08-19T12:16:30;4.97;;;1.80;;
1545;SDS011;766;51.502;9.752;2022-08-19T12:19:05;2.60;;;2.05;;
1545;SDS011;766;51.502;9.752;2022-08-19T12:21:33;2.60;;;1.60;;
1545;SDS011;766;51.502;9.752;2022-08-19T12:24:06;1.88;;;1.55;;
1545;SDS011;766;51.502;9.752;2022-08-19T12:26:35;2.00;;;1.80;;
1545;SDS011;766;51.502;9.752;2022-08-19T12:29:19;2.90;;;1.80;;
1545;SDS011;766;51.502;9.752;2022-08-19T12:31:58;3.88;;;1.73;;
1545;SDS011;766;51.502;9.752;2022-08-19T12:34:29;2.08;;;1.55;;
1545;SDS011;766;51.502;9.752;2022-08-19T12:37:05;1.88;;;1.40;;
1545;SDS011;766;51.502;9.752;2022-08-19T12:39:39;3.15;;;1.80;;
1545;SDS011;766;51.502;9.752;2022-08-19T12:42:09;2.53;;;1.80;;
1545;SDS011;766;51.502;9.752;2022-08-19T12:44:39;3.58;;;1.92;;
1545;SDS011;766;51.502;9.752;2022-08-19T12:47:12;2.90;;;1.90;;
1545;SDS011;766;51.502;9.752;2022-08-19T12:49:41;3.45;;;1.85;;
1545;SDS011;766;51.502;9.752;2022-08-19T12:52:21;1.55;;;1.45;;
1545;SDS011;766;51.502;9.752;2022-08-19T12:54:50;3.95;;;1.70;;
1545;SDS011;766;51.502;9.752;2022-08-19T12:57:20;2.03;;;1.70;;
1545;SDS011;766;51.502;9.752;2022-08-19T12:59:58;1.65;;;1.55;;
1545;SDS011;766;51.502;9.752;2022-08-19T13:02:32;3.05;;;1.70;;
1545;SDS011;766;51.502;9.752;2022-08-19T13:05:05;7.82;;;1.30;;
1545;SDS011;766;51.502;9.752;2022-08-19T13:07:36;2.10;;;1.73;;
1545;SDS011;766;51.502;9.752;2022-08-19T13:10:05;4.82;;;1.42;;
1545;SDS011;766;51.502;9.752;2022-08-19T13:12:39;3.20;;;1.48;;
1545;SDS011;766;51.502;9.752;2022-08-19T13:15:08;3.17;;;1.60;;
1545;SDS011;766;51.502;9.752;2022-08-19T13:17:39;1.70;;;1.60;;
1545;SDS011;766;51.502;9.752;2022-08-19T13:20:08;2.28;;;1.40;;
1545;SDS011;766;51.502;9.752;2022-08-19T13:22:37;3.30;;;1.50;;
1545;SDS011;766;51.502;9.752;2022-08-19T13:25:06;5.00;;;1.67;;
1545;SDS011;766;51.502;9.752;2022-08-19T13:27:40;4.00;;;1.60;;
1545;SDS011;766;51.502;9.752;2022-08-19T13:30:10;4.32;;;1.92;;
1545;SDS011;766;51.502;9.752;2022-08-19T13:32:58;4.45;;;1.70;;
1545;SDS011;766;51.502;9.752;2022-08-19T13:35:41;2.00;;;1.48;;
1545;SDS011;766;51.502;9.752;2022-08-19T13:38:15;3.45;;;1.80;;
1545;SDS011;766;51.502;9.752;2022-08-19T13:40:47;2.28;;;1.83;;
1545;SDS011;766;51.502;9.752;2022-08-19T13:43:17;1.63;;;1.52;;
1545;SDS011;766;51.502;9.752;2022-08-19T13:45:49;2.70;;;1.70;;
1545;SDS011;766;51.502;9.752;2022-08-19T13:48:21;4.57;;;1.48;;
1545;SDS011;766;51.502;9.752;2022-08-19T13:50:51;1.88;;;1.40;;
1545;SDS011;766;51.502;9.752;2022-08-19T13:53:20;2.92;;;1.50;;
1545;SDS011;766;51.502;9.752;2022-08-19T13:55:49;1.98;;;1.50;;
1545;SDS011;766;51.502;9.752;2022-08-19T13:58:19;2.35;;;1.63;;
1545;SDS011;766;51.502;9.752;2022-08-19T14:00:48;3.47;;;1.50;;
1545;SDS011;766;51.502;9.752;2022-08-19T14:03:16;4.05;;;1.50;;
1545;SDS011;766;51.502;9.752;2022-08-19T14:05:46;3.80;;;1.40;;
1545;SDS011;766;51.502;9.752;2022-08-19T14:08:18;2.00;;;1.55;;
1545;SDS011;766;51.502;9.752;2022-08-19T14:10:47;1.63;;;1.52;;
1545;SDS011;766;51.502;9.752;2022-08-19T14:13:16;3.90;;;1.55;;
1545;SDS011;766;51.502;9.752;2022-08-19T14:15:46;1.60;;;1.50;;
1545;SDS011;766;51.502;9.752;2022-08-19T14:18:18;5.82;;;1.80;;
1545;SDS011;766;51.502;9.752;2022-08-19T14:20:48;5.00;;;1.70;;
1545;SDS011;766;51.502;9.752;2022-08-19T14:23:16;4.35;;;1.60;;
1545;SDS011;766;51.502;9.752;2022-08-19T14:25:45;1.40;;;1.30;;
1545;SDS011;766;51.502;9.752;2022-08-19T14:28:14;6.97;;;1.30;;
1545;SDS011;766;51.502;9.752;2022-08-19T14:30:42;3.17;;;1.42;;
1545;SDS011;766;51.502;9.752;2022-08-19T14:33:11;1.77;;;1.40;;
1545;SDS011;766;51.502;9.752;2022-08-19T14:35:40;1.67;;;1.55;;
1545;SDS011;766;51.502;9.752;2022-08-19T14:38:16;2.67;;;1.73;;
1545;SDS011;766;51.502;9.752;2022-08-19T14:41:11;1.60;;;1.50;;
1545;SDS011;766;51.502;9.752;2022-08-19T14:43:43;4.22;;;1.50;;
1545;SDS011;766;51.502;9.752;2022-08-19T14:46:13;1.88;;;1.40;;
1545;SDS011;766;51.502;9.752;2022-08-19T14:48:43;1.77;;;1.38;;
1545;SDS011;766;51.502;9.752;2022-08-19T14:51:17;2.03;;;1.63;;
1545;SDS011;766;51.502;9.752;2022-08-19T14:53:48;4.80;;;1.90;;
1545;SDS011;766;51.502;9.752;2022-08-19T14:56:21;3.20;;;1.40;;
1545;SDS011;766;51.502;9.752;2022-08-19T14:58:51;4.45;;;1.83;;
1545;SDS011;766;51.502;9.752;2022-08-19T15:01:21;3.58;;;1.70;;
1545;SDS011;766;51.502;9.752;2022-08-19T15:03:50;1.70;;;1.40;;
1545;SDS011;766;51.502;9.752;2022-08-19T15:06:21;2.80;;;1.50;;
1545;SDS011;766;51.502;9.752;2022-08-19T15:08:52;2.42;;;1.42;;
1545;SDS011;766;51.502;9.752;2022-08-19T15:11:24;2.17;;;1.63;;
1545;SDS011;766;51.502;9.752;2022-08-19T15:13:54;1.92;;;1.60;;
1545;SDS011;766;51.502;9.752;2022-08-19T15:16:23;1.70;;;1.52;;
1545;SDS011;766;51.502;9.752;2022-08-19T15:18:55;2.13;;;1.38;;
1545;SDS011;766;51.502;9.752;2022-08-19T15:21:25;1.98;;;1.77;;
1545;SDS011;766;51.502;9.752;2022-08-19T15:24:00;3.65;;;1.73;;
1545;SDS011;766;51.502;9.752;2022-08-19T15:26:29;1.85;;;1.63;;
1545;SDS011;766;51.502;9.752;2022-08-19T15:29:01;1.65;;;1.50;;
1545;SDS011;766;51.502;9.752;2022-08-19T15:31:32;1.92;;;1.50;;
1545;SDS011;766;51.502;9.752;2022-08-19T15:34:04;2.28;;;1.60;;
1545;SDS011;766;51.502;9.752;2022-08-19T15:36:33;2.05;;;1.40;;
1545;SDS011;766;51.502;9.752;2022-08-19T15:39:03;1.58;;;1.48;;
1545;SDS011;766;51.502;9.752;2022-08-19T15:41:35;2.10;;;1.52;;
1545;SDS011;766;51.502;9.752;2022-08-19T15:44:08;2.13;;;1.38;;
1545;SDS011;766;51.502;9.752;2022-08-19T15:46:41;2.13;;;1.50;;
1545;SDS011;766;51.502;9.752;2022-08-19T15:49:12;4.20;;;1.60;;
1545;SDS011;766;51.502;9.752;2022-08-19T15:51:43;2.13;;;1.50;;
1545;SDS011;766;51.502;9.752;2022-08-19T15:54:15;2.55;;;1.63;;
1545;SDS011;766;51.502;9.752;2022-08-19T15:56:46;5.72;;;1.48;;
1545;SDS011;766;51.502;9.752;2022-08-19T15:59:33;3.97;;;1.50;;
1545;SDS011;766;51.502;9.752;2022-08-19T16:02:20;1.85;;;1.50;;